To NAV CANADA Home Page Login to a new session Search on AWWS site Feedback and Comments Disclaimer Vers la page française équivalente Tips FAQ What's new on the site To the Forecasts and Observations / NOTAM section To "File a Flight Plan" website Publications and other links Update of the User's profile FIC Telephone Numbers My Weather Data Folder Route Weather Data Regional Weather Data Local Weather Data To the Forecasts and Observations / NOTAM section
Request Generated 05/31/2016 at 11:51:45 UTC . Weather information available at that time is displayed.

METAR/TAF

FORT ST. JOHN/BC    

METAR CYXJ 311100Z 12004KT 15SM FEW090 SCT240 04/02 A3019 RMK AC1CI2
SLP245=
METAR CYXJ 311000Z 13002KT 15SM FEW090 05/03 A3020 RMK AC1 SLP247=
METAR CYXJ 310900Z 15004KT 15SM SCT090 05/03 A3020 RMK AC3 SLP251=

TAF CYXJ 310638Z 3107/3119 VRB03KT P6SM SCT060 SCT200
FM311700 21008KT P6SM FEW060 BKN150
RMK NXT FCST BY 311300Z=
Your time UTC time
Weather data provided by Environment Canada and NAV CANADA